Terminal Aerodrome Forecast
Issued by NWS

Home | Current Version | Previous Version | Text Only | Print | Product List | Glossary On
Versions: 1 2 3 4 5 6 7 8 9 10 11 12
907
FTUS41 KBTV 232342
TAFMSS
TAF
KMSS 232342Z 2400/2424 15006KT P6SM SCT150
     FM240700 12006KT P6SM VCSH BKN100
     FM241000 13009KT 5SM -RA BR OVC090
     FM241300 16012G24KT 4SM RA BR OVC060
     FM241700 21007KT 3SM +RA BR OVC020
     FM242000 VRB03KT 4SM RA BR OVC040=

USA.gov is the U.S. government's official web portal to all federal, state and local government web resources and services.